Time;durP1;ratioP1;P1;durP2;ratioP2;P2;SDS_P1;SDS_P2;PMS_P1;PMS_P2;Temp;Humidity;BMP_temperature;BMP_pressure;BME280_temperature;BME280_humidity;BME280_pressure;Samples;Min_cycle;Max_cycle;Signal;HPM_P1;HPM_P2
2022/07/16 07:59:16;;;;;;;3.50;1.70;;;;;;;18.83;57.67;102192.47;5321558;27;20475;-69
2022/07/16 08:01:48;;;;;;;2.70;1.30;;;;;;;18.94;57.81;102193.06;5314888;28;20039;-70
2022/07/16 08:04:19;;;;;;;2.28;1.30;;;;;;;18.86;57.51;102193.81;5301907;28;20482;-70
2022/07/16 08:06:53;;;;;;;4.20;1.60;;;;;;;19.00;58.66;102196.63;5303300;28;20039;-70
2022/07/16 08:09:25;;;;;;;5.22;1.50;;;;;;;18.98;58.06;102205.38;5321724;28;20024;-71
2022/07/16 08:11:56;;;;;;;3.47;1.92;;;;;;;19.01;57.45;102204.72;5316952;28;20031;-71
2022/07/16 08:14:28;;;;;;;3.60;1.40;;;;;;;19.17;57.64;102210.03;5300970;28;20107;-71
2022/07/16 08:17:00;;;;;;;4.68;1.80;;;;;;;19.21;57.04;102211.06;5300918;28;20127;-70
2022/07/16 08:19:32;;;;;;;3.67;2.35;;;;;;;19.13;57.49;102212.66;5300240;28;20020;-71
2022/07/16 08:22:04;;;;;;;2.90;1.40;;;;;;;19.49;57.74;102211.84;5306528;28;20024;-71
2022/07/16 08:27:25;;;;;;;4.38;1.55;;;;;;;19.55;57.20;102219.00;5320756;28;20032;-70
2022/07/16 08:29:56;;;;;;;3.15;1.60;;;;;;;19.51;57.19;102224.44;5311361;28;20020;-71
2022/07/16 08:32:27;;;;;;;2.70;1.48;;;;;;;19.32;56.25;102223.75;5304591;28;20103;-71
2022/07/16 08:34:59;;;;;;;2.03;1.45;;;;;;;19.50;56.99;102222.75;5319616;28;20115;-71
2022/07/16 08:37:32;;;;;;;2.60;1.40;;;;;;;19.46;55.27;102233.00;5316223;28;20024;-71
2022/07/16 08:40:07;;;;;;;3.20;1.30;;;;;;;19.69;54.54;102235.88;5320152;28;20028;-71
2022/07/16 08:42:39;;;;;;;2.85;1.17;;;;;;;19.67;53.34;102232.53;5303064;28;20036;-75
2022/07/16 08:45:12;;;;;;;3.00;1.60;;;;;;;19.75;53.00;102234.59;5318920;28;20020;-72
2022/07/16 08:47:43;;;;;;;4.68;2.05;;;;;;;19.74;53.00;102238.56;5320548;28;20757;-72
2022/07/16 08:50:15;;;;;;;3.05;1.17;;;;;;;19.84;52.36;102243.09;5314266;28;20024;-73
2022/07/16 08:52:51;;;;;;;3.78;1.30;;;;;;;19.78;52.79;102248.03;5312352;28;20044;-75
2022/07/16 08:55:24;;;;;;;3.47;2.00;;;;;;;19.97;53.21;102247.84;5304706;28;20039;-72
2022/07/16 08:57:57;;;;;;;4.68;2.58;;;;;;;19.94;53.19;102254.97;5304973;28;20469;-72
2022/07/16 09:00:28;;;;;;;3.20;1.50;;;;;;;20.09;52.29;102253.72;5299506;28;20024;-74
2022/07/16 09:03:00;;;;;;;3.50;1.92;;;;;;;19.83;52.48;102253.53;5310234;28;20025;-72
2022/07/16 09:05:35;;;;;;;3.65;2.28;;;;;;;20.05;51.96;102260.34;5310839;28;20028;-72
2022/07/16 09:08:06;;;;;;;2.60;1.63;;;;;;;19.96;51.91;102257.44;5299283;28;20028;-72
2022/07/16 09:10:38;;;;;;;5.07;1.50;;;;;;;19.96;51.32;102266.72;5291273;28;20035;-71
2022/07/16 09:13:10;;;;;;;5.82;1.80;;;;;;;20.13;50.79;102268.00;5296936;28;20100;-72
2022/07/16 09:15:43;;;;;;;3.67;1.73;;;;;;;20.17;50.96;102269.88;5298770;28;20024;-71
2022/07/16 09:18:25;;;;;;;5.18;1.52;;;;;;;20.08;50.75;102268.97;5293603;28;20502;-73
2022/07/16 09:21:00;;;;;;;2.70;1.60;;;;;;;20.16;50.21;102268.19;5306535;28;20048;-72
2022/07/16 09:23:36;;;;;;;8.50;6.07;;;;;;;20.26;49.50;102278.38;5291680;28;20017;-72
2022/07/16 09:26:10;;;;;;;4.25;2.47;;;;;;;20.36;49.59;102268.81;5285325;28;20495;-72
2022/07/16 09:28:49;;;;;;;4.07;1.67;;;;;;;20.42;49.82;102265.53;5284305;28;20021;-72
2022/07/16 09:31:41;;;;;;;3.88;2.22;;;;;;;20.52;49.47;102274.88;5284578;28;20097;-73
2022/07/16 09:34:25;;;;;;;2.28;1.50;;;;;;;20.49;48.28;102269.88;5285522;28;20494;-75
2022/07/16 09:36:59;;;;;;;3.45;1.42;;;;;;;20.50;47.08;102272.38;5286032;28;20405;-71
2022/07/16 09:39:31;;;;;;;3.15;1.38;;;;;;;20.55;47.52;102279.88;5306091;28;20028;-71
2022/07/16 09:42:03;;;;;;;4.50;3.00;;;;;;;20.59;47.69;102281.75;5305375;28;20161;-71
2022/07/16 09:44:41;;;;;;;2.47;1.45;;;;;;;20.71;47.04;102275.50;5288762;28;20099;-70
2022/07/16 09:47:13;;;;;;;6.20;1.65;;;;;;;20.82;46.92;102281.69;5301997;28;20472;-70
2022/07/16 09:49:53;;;;;;;3.83;1.63;;;;;;;20.71;47.00;102295.25;5295073;28;20099;-70
2022/07/16 09:52:32;;;;;;;2.80;1.35;;;;;;;20.87;47.07;102290.00;5294614;28;20031;-72
2022/07/16 09:55:04;;;;;;;3.03;1.38;;;;;;;20.79;46.63;102290.81;5301449;28;20203;-73
2022/07/16 09:57:36;;;;;;;10.65;2.00;;;;;;;20.93;46.84;102293.50;5300778;28;20161;-69
2022/07/16 10:00:10;;;;;;;3.53;1.33;;;;;;;20.92;46.90;102298.31;5294390;28;20055;-71
2022/07/16 10:02:42;;;;;;;6.05;3.60;;;;;;;21.04;46.36;102298.53;5304671;28;20028;-71
2022/07/16 10:05:13;;;;;;;13.05;11.48;;;;;;;20.95;46.60;102299.66;5284123;28;20028;-71
2022/07/16 10:07:44;;;;;;;3.38;1.65;;;;;;;21.08;46.45;102304.34;5302439;28;20378;-71
2022/07/16 10:10:16;;;;;;;6.22;1.80;;;;;;;21.09;46.08;102306.03;5293832;28;20035;-71
2022/07/16 10:12:48;;;;;;;2.42;1.17;;;;;;;21.26;45.06;102306.06;5296656;28;20024;-71
2022/07/16 10:15:20;;;;;;;2.45;1.38;;;;;;;21.33;44.64;102307.59;5298705;28;20348;-71
2022/07/16 10:17:52;;;;;;;2.65;1.40;;;;;;;21.35;43.74;102302.47;5292622;28;20028;-71
2022/07/16 10:20:23;;;;;;;1.50;1.15;;;;;;;21.32;43.90;102303.09;5302654;28;20081;-72
2022/07/16 10:22:55;;;;;;;2.45;1.50;;;;;;;21.13;41.91;102312.66;5300516;28;20384;-71
2022/07/16 10:25:26;;;;;;;1.90;1.40;;;;;;;21.20;41.93;102323.50;5296857;28;20043;-72
2022/07/16 10:27:58;;;;;;;3.70;1.40;;;;;;;21.04;42.72;102325.91;5291015;28;20383;-69
2022/07/16 10:30:30;;;;;;;2.03;1.17;;;;;;;21.18;43.64;102320.16;5300068;28;20047;-72
2022/07/16 10:33:12;;;;;;;3.45;1.38;;;;;;;21.10;43.62;102321.78;5299127;28;20123;-70
2022/07/16 10:35:49;;;;;;;4.45;1.90;;;;;;;21.11;43.10;102320.63;5283916;28;20056;-73
2022/07/16 10:38:23;;;;;;;3.10;2.15;;;;;;;21.04;43.70;102320.28;5296810;28;20132;-72
2022/07/16 10:41:26;;;;;;;4.43;1.80;;;;;;;21.41;44.06;102312.44;5299075;28;20047;-71
2022/07/16 10:44:08;;;;;;;1.52;1.13;;;;;;;21.54;44.31;102327.59;5285752;28;20036;-71
2022/07/16 10:46:52;;;;;;;4.03;2.20;;;;;;;21.65;42.73;102334.56;5288845;28;20060;-72
2022/07/16 10:49:25;;;;;;;3.65;1.10;;;;;;;21.65;42.85;102328.94;5284038;28;20032;-72
2022/07/16 10:52:06;;;;;;;3.05;1.48;;;;;;;21.57;42.93;102326.94;5287265;28;20489;-72
2022/07/16 10:54:58;;;;;;;2.55;1.17;;;;;;;21.63;42.60;102336.91;5296102;28;20113;-73
2022/07/16 10:57:36;;;;;;;5.05;2.53;;;;;;;21.80;42.77;102317.16;5292523;28;20048;-73
2022/07/16 11:00:08;;;;;;;4.10;2.20;;;;;;;21.40;43.36;102333.38;5301744;28;20371;-73
2022/07/16 11:02:41;;;;;;;3.60;1.40;;;;;;;21.32;44.11;102329.34;5301951;28;20050;-72
2022/07/16 11:05:23;;;;;;;2.85;1.30;;;;;;;21.45;42.92;102331.22;5304246;28;20032;-72
2022/07/16 11:08:09;;;;;;;3.42;1.90;;;;;;;21.30;42.94;102334.47;5290742;28;20020;-74
2022/07/16 11:10:41;;;;;;;4.30;1.70;;;;;;;21.49;43.17;102331.41;5289471;28;20368;-72
2022/07/16 11:13:14;;;;;;;2.13;1.00;;;;;;;21.60;43.20;102331.91;5291593;28;20085;-73
2022/07/16 11:15:48;;;;;;;11.65;9.98;;;;;;;21.54;44.02;102336.06;5283299;28;20028;-74
2022/07/16 11:18:20;;;;;;;10.63;8.90;;;;;;;21.23;45.20;102340.59;5283343;28;20028;-74
2022/07/16 11:20:51;;;;;;;3.10;1.85;;;;;;;21.18;45.02;102339.91;5283065;28;20066;-73
2022/07/16 11:23:22;;;;;;;3.60;1.70;;;;;;;21.15;45.85;102338.56;5297764;28;20511;-71
2022/07/16 11:26:00;;;;;;;2.92;1.58;;;;;;;21.34;43.11;102340.28;5303761;28;20352;-73
2022/07/16 11:28:31;;;;;;;4.97;1.45;;;;;;;21.47;42.66;102336.53;5302695;28;20032;-75
2022/07/16 11:31:08;;;;;;;5.38;1.90;;;;;;;21.43;41.75;102344.00;5300767;28;20028;-73
2022/07/16 11:33:41;;;;;;;2.55;1.65;;;;;;;21.44;42.92;102342.84;5300766;28;20027;-73
2022/07/16 11:36:13;;;;;;;2.80;1.73;;;;;;;21.44;43.66;102338.00;5301827;28;20078;-73
2022/07/16 11:38:44;;;;;;;2.65;1.60;;;;;;;21.51;43.78;102348.84;5299631;28;20059;-72
2022/07/16 11:41:17;;;;;;;4.95;2.28;;;;;;;21.36;43.75;102344.44;5301778;28;20030;-73
2022/07/16 11:43:48;;;;;;;4.95;3.00;;;;;;;21.50;42.57;102344.38;5294615;28;20059;-72
2022/07/16 11:46:23;;;;;;;3.20;1.42;;;;;;;21.57;42.00;102349.50;5286141;28;20113;-76
2022/07/16 11:48:55;;;;;;;6.22;1.60;;;;;;;21.68;43.33;102351.69;5297872;28;20031;-71
2022/07/16 11:51:28;;;;;;;3.30;1.45;;;;;;;21.55;41.60;102352.69;5298940;28;20024;-71
2022/07/16 11:53:59;;;;;;;3.70;1.65;;;;;;;21.92;42.14;102345.56;5301878;28;20016;-73
2022/07/16 11:56:36;;;;;;;5.88;2.80;;;;;;;22.27;41.95;102336.31;5301634;28;20027;-72
2022/07/16 11:59:28;;;;;;;2.50;1.25;;;;;;;22.18;41.45;102343.91;5298893;28;20040;-72
2022/07/16 12:02:06;;;;;;;4.65;1.48;;;;;;;21.96;41.09;102350.56;5293976;28;20056;-71
2022/07/16 12:04:44;;;;;;;3.22;1.33;;;;;;;21.99;41.03;102350.75;5297170;28;20030;-71
2022/07/16 12:07:29;;;;;;;2.42;1.40;;;;;;;22.18;41.09;102341.09;5298189;28;20107;-71
2022/07/16 12:10:04;;;;;;;3.55;1.55;;;;;;;22.29;40.35;102346.13;5299650;28;20340;-70
2022/07/16 12:12:37;;;;;;;16.83;15.13;;;;;;;22.46;40.63;102345.25;5298719;28;20030;-71
2022/07/16 12:15:12;;;;;;;10.82;7.47;;;;;;;22.68;40.68;102338.56;5295752;28;20032;-70
2022/07/16 12:17:46;;;;;;;3.78;2.67;;;;;;;22.54;40.74;102343.56;5296361;28;20038;-70
2022/07/16 12:20:27;;;;;;;3.42;1.80;;;;;;;22.36;39.81;102348.44;5298144;28;20427;-69
2022/07/16 12:23:13;;;;;;;3.90;1.67;;;;;;;22.55;39.78;102342.44;5296511;28;20043;-70
2022/07/16 12:25:45;;;;;;;3.55;1.60;;;;;;;22.60;38.28;102347.91;5298778;28;20024;-71
2022/07/16 12:28:16;;;;;;;4.82;1.58;;;;;;;22.43;38.79;102348.75;5299518;28;20016;-69
2022/07/16 12:30:53;;;;;;;3.10;1.50;;;;;;;22.48;38.77;102351.41;5297185;28;20043;-69
2022/07/16 12:33:29;;;;;;;2.75;1.95;;;;;;;22.11;38.80;102347.25;5293325;28;20297;-70
2022/07/16 12:36:03;;;;;;;5.55;1.73;;;;;;;22.18;38.86;102347.56;5298553;28;20036;-70
2022/07/16 12:39:00;;;;;;;2.10;1.30;;;;;;;22.48;38.40;102348.56;5298129;28;20039;-72
2022/07/16 12:41:41;;;;;;;2.38;1.30;;;;;;;22.69;38.05;102357.19;5298473;28;20036;-69
2022/07/16 12:44:15;;;;;;;2.47;1.52;;;;;;;22.74;37.75;102359.00;5302379;28;20439;-69
2022/07/16 12:46:51;;;;;;;3.53;1.77;;;;;;;22.78;38.19;102365.66;5302677;28;20019;-69
2022/07/16 12:49:27;;;;;;;3.58;1.38;;;;;;;22.73;38.33;102360.19;5307038;28;20032;-69
2022/07/16 12:52:01;;;;;;;;;;;;;;;23.05;37.95;102357.94;5303535;28;20036;-72
2022/07/16 13:00:13;;;;;;;2.38;1.50;;;;;;;23.26;37.16;102353.19;5304653;28;20064;-70
2022/07/16 13:02:45;;;;;;;6.97;4.88;;;;;;;23.50;37.38;102348.91;5305222;28;20403;-69
2022/07/16 13:05:16;;;;;;;4.38;1.88;;;;;;;23.48;37.22;102356.91;5305448;28;20024;-71
2022/07/16 13:07:48;;;;;;;2.65;1.63;;;;;;;23.62;37.17;102354.63;5300797;28;20467;-70
2022/07/16 13:10:19;;;;;;;3.08;1.48;;;;;;;23.54;36.49;102356.34;5289466;28;20024;-71
2022/07/16 13:12:50;;;;;;;4.68;1.40;;;;;;;23.49;36.55;102361.38;5303434;28;20024;-74
2022/07/16 13:15:22;;;;;;;1.48;1.27;;;;;;;23.57;36.38;102360.50;5284775;28;20130;-72
2022/07/16 13:17:53;;;;;;;3.47;1.40;;;;;;;23.62;36.46;102341.34;5285747;28;20035;-70
2022/07/16 13:20:25;;;;;;;3.13;1.27;;;;;;;23.63;35.99;102345.00;5296335;28;20133;-71
2022/07/16 13:22:56;;;;;;;2.92;1.25;;;;;;;23.58;36.26;102342.38;5305158;28;20024;-72
2022/07/16 13:25:28;;;;;;;6.47;2.70;;;;;;;23.93;36.66;102334.47;5306347;28;20027;-71
2022/07/16 13:27:59;;;;;;;4.10;1.50;;;;;;;23.99;35.39;102335.09;5306621;28;20447;-71
2022/07/16 13:30:30;;;;;;;3.35;1.70;;;;;;;24.08;35.89;102338.66;5304355;28;20463;-70
2022/07/16 13:33:02;;;;;;;6.43;2.35;;;;;;;24.18;35.55;102346.75;5305501;28;20054;-71
2022/07/16 13:35:33;;;;;;;4.63;2.05;;;;;;;24.10;35.62;102344.81;5304860;28;20032;-71
2022/07/16 13:38:05;;;;;;;4.75;2.63;;;;;;;24.32;35.72;102343.66;5297574;28;20131;-70
2022/07/16 13:40:36;;;;;;;2.55;1.55;;;;;;;24.08;35.29;102350.00;5295440;28;20029;-70
2022/07/16 13:43:08;;;;;;;8.30;4.05;;;;;;;24.38;35.23;102355.59;5293536;28;20078;-70
2022/07/16 13:45:40;;;;;;;5.07;3.50;;;;;;;24.26;34.38;102357.22;5296227;28;20028;-71
2022/07/16 13:48:12;;;;;;;12.60;11.40;;;;;;;24.07;34.23;102354.03;5300107;28;20035;-70
2022/07/16 13:50:44;;;;;;;9.45;8.48;;;;;;;24.04;34.62;102355.56;5302794;28;20024;-70
2022/07/16 13:53:15;;;;;;;3.22;1.25;;;;;;;24.15;34.38;102344.63;5296350;28;20379;-70
2022/07/16 13:55:47;;;;;;;5.63;1.95;;;;;;;24.04;35.28;102355.56;5302755;28;20103;-69
2022/07/16 13:58:18;;;;;;;3.55;1.25;;;;;;;24.47;34.62;102351.53;5303605;28;20043;-69
2022/07/16 14:00:54;;;;;;;3.03;1.52;;;;;;;24.45;34.68;102353.06;5304862;28;20379;-69
2022/07/16 14:03:27;;;;;;;11.07;10.00;;;;;;;24.81;35.30;102354.34;5305448;28;20505;-69
2022/07/16 14:06:03;;;;;;;3.55;2.35;;;;;;;24.87;34.77;102359.44;5284259;28;20416;-69
2022/07/16 14:08:34;;;;;;;5.13;1.67;;;;;;;24.77;34.48;102350.53;5300568;28;20035;-69
2022/07/16 14:11:06;;;;;;;3.83;1.50;;;;;;;24.82;34.37;102341.81;5291818;28;20476;-70
2022/07/16 14:13:37;;;;;;;1.60;1.15;;;;;;;24.70;34.24;102349.13;5305879;28;20020;-69
2022/07/16 14:16:09;;;;;;;2.13;1.20;;;;;;;24.62;34.56;102347.22;5304748;28;20026;-69
2022/07/16 14:18:40;;;;;;;4.30;1.50;;;;;;;24.91;34.69;102348.22;5287749;28;20086;-71
2022/07/16 14:21:11;;;;;;;2.95;1.45;;;;;;;24.82;34.18;102351.13;5300124;28;20029;-71
2022/07/16 14:23:43;;;;;;;5.50;2.10;;;;;;;24.45;34.18;102353.06;5304675;28;20043;-70
2022/07/16 14:26:14;;;;;;;3.22;2.10;;;;;;;24.69;34.33;102346.63;5325127;28;20106;-70
2022/07/16 14:28:45;;;;;;;2.92;1.50;;;;;;;24.87;34.54;102344.41;5326230;28;20023;-70
2022/07/16 14:31:16;;;;;;;4.13;1.95;;;;;;;24.55;34.70;102352.63;5321443;28;20024;-69
2022/07/16 14:33:48;;;;;;;5.20;1.70;;;;;;;24.78;34.80;102343.72;5300742;28;20317;-71
2022/07/16 14:36:19;;;;;;;4.80;1.30;;;;;;;24.78;34.44;102340.88;5295857;28;20024;-68
2022/07/16 14:38:50;;;;;;;3.13;1.35;;;;;;;24.76;34.57;102354.56;5288170;28;20039;-68
2022/07/16 14:41:22;;;;;;;2.58;1.40;;;;;;;24.94;34.13;102339.00;5294165;28;20123;-68
2022/07/16 14:43:53;;;;;;;4.65;1.80;;;;;;;24.89;34.35;102339.22;5303157;28;20093;-68
2022/07/16 14:46:24;;;;;;;21.05;18.83;;;;;;;25.01;34.29;102347.75;5292650;28;20029;-68
2022/07/16 14:48:55;;;;;;;2.88;1.27;;;;;;;24.92;33.64;102342.16;5283503;28;20024;-68
2022/07/16 14:51:27;;;;;;;3.30;1.73;;;;;;;24.91;33.51;102342.53;5285070;28;20032;-69
2022/07/16 14:53:58;;;;;;;2.85;1.30;;;;;;;24.92;33.64;102344.19;5297430;28;20031;-68
2022/07/16 14:56:29;;;;;;;4.18;1.52;;;;;;;24.73;34.38;102345.56;5293382;28;20112;-69
2022/07/16 14:59:01;;;;;;;4.30;1.65;;;;;;;24.99;34.27;102349.28;5281990;28;20048;-68
2022/07/16 15:01:32;;;;;;;4.45;1.90;;;;;;;24.81;34.76;102343.00;5298904;28;20038;-70
2022/07/16 15:04:04;;;;;;;4.07;1.40;;;;;;;24.87;34.58;102341.59;5283412;28;20090;-68
2022/07/16 15:06:35;;;;;;;4.68;1.13;;;;;;;24.81;33.94;102343.00;5283296;28;20032;-69
2022/07/16 15:09:06;;;;;;;3.05;1.10;;;;;;;24.70;34.78;102348.31;5282181;28;20037;-71
2022/07/16 15:11:38;;;;;;;5.30;1.88;;;;;;;24.63;34.63;102354.53;5301828;28;20162;-66
2022/07/16 15:14:09;;;;;;;3.17;1.30;;;;;;;24.66;35.13;102356.66;5285192;28;20140;-71
2022/07/16 15:16:40;;;;;;;2.45;1.27;;;;;;;24.66;34.86;102359.50;5297233;28;20107;-68
2022/07/16 15:19:12;;;;;;;4.88;1.63;;;;;;;24.63;35.06;102351.69;5294126;28;20431;-68
2022/07/16 15:21:43;;;;;;;4.65;1.65;;;;;;;24.73;34.90;102339.91;5284875;28;20121;-70
2022/07/16 15:24:14;;;;;;;4.15;2.08;;;;;;;24.79;35.12;102334.00;5311019;28;20031;-71
2022/07/16 15:26:46;;;;;;;5.53;2.10;;;;;;;24.66;35.78;102348.16;5308339;28;20117;-71
2022/07/16 15:29:17;;;;;;;4.45;1.70;;;;;;;24.60;34.90;102348.75;5297364;28;20028;-70
2022/07/16 15:31:48;;;;;;;6.10;2.63;;;;;;;24.68;34.65;102359.97;5301894;28;20099;-70
2022/07/16 15:34:21;;;;;;;5.63;1.75;;;;;;;24.51;35.16;102355.31;5292792;28;20445;-71
2022/07/16 15:36:52;;;;;;;4.55;2.50;;;;;;;24.77;35.21;102364.72;5282094;28;20024;-71
2022/07/16 15:39:23;;;;;;;5.07;3.40;;;;;;;24.78;35.10;102355.06;5292490;28;20053;-69
2022/07/16 15:41:55;;;;;;;3.67;1.73;;;;;;;24.55;34.83;102352.63;5302081;28;20020;-69
2022/07/16 15:44:26;;;;;;;3.95;1.70;;;;;;;24.77;34.88;102344.88;5302116;28;20031;-69
2022/07/16 15:46:58;;;;;;;4.90;1.50;;;;;;;24.66;35.04;102359.50;5295532;28;20031;-70
2022/07/16 15:49:29;;;;;;;3.67;1.48;;;;;;;24.67;35.47;102352.66;5289393;28;20115;-69
2022/07/16 15:52:00;;;;;;;6.63;1.90;;;;;;;24.76;36.08;102358.22;5285581;28;20032;-70
2022/07/16 15:54:31;;;;;;;3.00;1.23;;;;;;;24.84;34.45;102354.47;5283916;28;20108;-71
2022/07/16 15:57:06;;;;;;;3.55;1.60;;;;;;;24.88;34.71;102361.09;5283051;28;20052;-70
2022/07/16 15:59:39;;;;;;;4.15;2.70;;;;;;;24.78;33.86;102361.56;5296827;28;20479;-71
2022/07/16 16:02:10;;;;;;;3.38;1.70;;;;;;;24.76;33.81;102357.41;5284421;28;20035;-72
2022/07/16 16:04:44;;;;;;;5.55;1.75;;;;;;;24.67;33.77;102358.34;5282380;28;20383;-71
2022/07/16 16:07:15;;;;;;;2.92;1.20;;;;;;;24.76;33.79;102357.41;5296721;28;20467;-71
2022/07/16 16:09:47;;;;;;;4.90;1.38;;;;;;;24.74;33.60;102355.72;5302399;28;20032;-71
2022/07/16 16:12:18;;;;;;;2.67;1.23;;;;;;;24.80;32.75;102359.19;5299907;28;20063;-71
2022/07/16 16:14:49;;;;;;;2.42;1.08;;;;;;;24.81;33.08;102348.66;5302435;28;20036;-71
2022/07/16 16:17:21;;;;;;;2.38;1.20;;;;;;;24.46;33.32;102354.69;5298670;28;20033;-72
2022/07/16 16:19:53;;;;;;;3.97;1.20;;;;;;;24.35;33.19;102362.78;5302863;28;20052;-71
2022/07/16 16:22:24;;;;;;;3.92;1.30;;;;;;;24.64;33.13;102356.19;5306163;28;20015;-72
2022/07/16 16:24:55;;;;;;;5.63;1.20;;;;;;;24.70;33.08;102368.16;5289833;28;20028;-71
2022/07/16 16:27:27;;;;;;;4.90;1.20;;;;;;;24.51;33.00;102374.34;5301008;28;20032;-71
2022/07/16 16:29:58;;;;;;;2.83;1.30;;;;;;;24.57;32.84;102384.31;5307360;28;20112;-70
2022/07/16 16:32:30;;;;;;;4.10;1.40;;;;;;;24.70;32.63;102383.16;5298982;28;20020;-71
2022/07/16 16:35:02;;;;;;;3.28;1.42;;;;;;;24.64;33.04;102384.53;5305232;28;20071;-71
2022/07/16 16:37:34;;;;;;;2.63;1.20;;;;;;;24.66;32.34;102376.50;5302778;28;20371;-71
2022/07/16 16:40:07;;;;;;;2.22;1.50;;;;;;;24.52;32.42;102376.84;5305536;28;20021;-70
2022/07/16 16:42:39;;;;;;;3.25;1.48;;;;;;;24.80;32.68;102367.72;5302709;28;20027;-70
2022/07/16 16:45:11;;;;;;;4.15;1.48;;;;;;;24.72;33.09;102369.47;5305958;28;20028;-71
2022/07/16 16:47:42;;;;;;;3.15;1.30;;;;;;;24.90;32.00;102372.94;5305113;28;20016;-71
2022/07/16 16:50:14;;;;;;;4.63;1.38;;;;;;;24.83;32.74;102369.84;5299962;28;20663;-71
2022/07/16 16:52:45;;;;;;;4.03;1.20;;;;;;;25.00;32.31;102365.94;5300583;28;20028;-71
2022/07/16 16:55:16;;;;;;;2.22;1.33;;;;;;;24.89;32.70;102367.59;5302786;28;20047;-71
2022/07/16 16:57:48;;;;;;;7.20;5.72;;;;;;;25.00;32.64;102365.13;5303655;28;20449;-70
2022/07/16 17:00:19;;;;;;;16.95;15.25;;;;;;;24.99;32.62;102366.31;5297250;28;20400;-71
2022/07/16 17:02:51;;;;;;;2.50;1.55;;;;;;;24.73;32.61;102365.44;5304298;28;20468;-71
2022/07/16 17:05:22;;;;;;;2.13;1.40;;;;;;;25.00;33.63;102359.47;5302876;28;20183;-72
2022/07/16 17:07:53;;;;;;;4.20;1.25;;;;;;;25.19;32.35;102361.78;5301384;28;20031;-71
2022/07/16 17:10:25;;;;;;;2.45;1.30;;;;;;;25.23;32.09;102371.22;5305722;28;20020;-71
2022/07/16 17:12:56;;;;;;;3.70;1.50;;;;;;;24.99;31.89;102363.50;5302280;28;20134;-71
2022/07/16 17:15:27;;;;;;;4.75;1.25;;;;;;;25.16;32.19;102366.97;5303330;28;20027;-71
2022/07/16 17:18:02;;;;;;;3.08;1.50;;;;;;;25.48;32.30;102361.53;5302209;28;20047;-70
2022/07/16 17:20:34;;;;;;;3.60;1.83;;;;;;;25.35;30.98;102357.03;5295907;28;20028;-73
2022/07/16 17:23:05;;;;;;;2.47;1.48;;;;;;;25.41;31.06;102364.13;5303617;28;20495;-70
2022/07/16 17:25:36;;;;;;;4.03;1.48;;;;;;;25.39;30.67;102363.66;5293216;28;20032;-70
2022/07/16 17:28:07;;;;;;;4.32;1.40;;;;;;;25.21;31.44;102365.06;5290387;28;20034;-70
